KHLR/HLR METAR and TAF weather

Enter ICAO airport designator
Station Type Date Time Source
KHLR METAR 2018/12/13 21:58 UTC NOAA

KHLR 132158Z AUTO 27015G25KT 10SM FEW038 14/03 A2971 RMK AO2 PK WND 27033/2059 SLP056 T01360034


Station Type Date Time Source
KHLR Decoded METAR 2018/12/13 21:58 UTC NOAA

Fort Hood, Hood AAF Ft Hood, TX, United States (KHLR) 31-08N 097-42W
Dec 13, 2018 - 04:58 PM EST / 2018.12.13 2158 UTC
Wind: from the W (270 degrees) at 17 MPH (15 KT) gusting to 29 MPH (25 KT):0
Visibility: 10 mile(s):0
Sky conditions: mostly clear
Temperature: 56.5 F (13.6 C)
Dew Point: 38.1 F (3.4 C)
Relative Humidity: 50%
Pressure (altimeter): 29.71 in. Hg (1006 hPa)
ob: KHLR 132158Z AUTO 27015G25KT 10SM FEW038 14/03 A2971 RMK AO2 PK WND 27033/2059 SLP056 T01360034
cycle: 22

Station Type Date Time Source
KHLR TAF UTC NOAA

Error!


Example: see airport list